sensor_id;sensor_type;location;lat;lon;timestamp;pressure;altitude;pressure_sealevel;temperature;humidity
4586;BME280;2305;50.118;8.952;2023-02-20T00:02:26;101648.31;;;9.69;100.00
4586;BME280;2305;50.118;8.952;2023-02-20T00:04:58;101646.09;;;9.61;100.00
4586;BME280;2305;50.118;8.952;2023-02-20T00:07:27;101636.69;;;9.57;100.00
4586;BME280;2305;50.118;8.952;2023-02-20T00:09:56;101631.56;;;9.54;100.00
4586;BME280;2305;50.118;8.952;2023-02-20T00:12:24;101629.13;;;9.51;100.00
4586;BME280;2305;50.118;8.952;2023-02-20T00:14:52;101624.88;;;9.49;100.00
4586;BME280;2305;50.118;8.952;2023-02-20T00:17:22;101626.84;;;9.45;100.00
4586;BME280;2305;50.118;8.952;2023-02-20T00:19:50;101627.84;;;9.43;100.00
4586;BME280;2305;50.118;8.952;2023-02-20T00:22:20;101617.44;;;9.41;100.00
4586;BME280;2305;50.118;8.952;2023-02-20T00:24:48;101618.47;;;9.39;100.00
4586;BME280;2305;50.118;8.952;2023-02-20T00:27:17;101631.00;;;9.34;100.00
4586;BME280;2305;50.118;8.952;2023-02-20T00:29:46;101626.09;;;9.28;100.00
4586;BME280;2305;50.118;8.952;2023-02-20T00:32:14;101635.25;;;9.21;100.00
4586;BME280;2305;50.118;8.952;2023-02-20T00:34:44;101626.19;;;9.11;100.00
4586;BME280;2305;50.118;8.952;2023-02-20T00:37:12;101629.13;;;9.05;100.00
4586;BME280;2305;50.118;8.952;2023-02-20T00:39:43;101626.41;;;8.91;100.00
4586;BME280;2305;50.118;8.952;2023-02-20T00:42:11;101630.38;;;8.82;100.00
4586;BME280;2305;50.118;8.952;2023-02-20T00:44:40;101619.16;;;8.79;100.00
4586;BME280;2305;50.118;8.952;2023-02-20T00:47:08;101621.28;;;8.73;100.00
4586;BME280;2305;50.118;8.952;2023-02-20T00:49:39;101614.81;;;8.63;100.00
4586;BME280;2305;50.118;8.952;2023-02-20T00:52:09;101608.88;;;8.59;100.00
4586;BME280;2305;50.118;8.952;2023-02-20T00:54:43;101619.72;;;8.53;100.00
4586;BME280;2305;50.118;8.952;2023-02-20T00:57:11;101628.50;;;8.52;100.00
4586;BME280;2305;50.118;8.952;2023-02-20T00:59:40;101619.72;;;8.53;100.00
4586;BME280;2305;50.118;8.952;2023-02-20T01:02:10;101622.25;;;8.55;100.00
4586;BME280;2305;50.118;8.952;2023-02-20T01:04:38;101624.13;;;8.53;100.00
4586;BME280;2305;50.118;8.952;2023-02-20T01:07:10;101622.41;;;8.52;100.00
4586;BME280;2305;50.118;8.952;2023-02-20T01:09:39;101628.69;;;8.49;100.00
4586;BME280;2305;50.118;8.952;2023-02-20T01:12:07;101627.00;;;8.48;100.00
4586;BME280;2305;50.118;8.952;2023-02-20T01:14:35;101632.06;;;8.51;100.00
4586;BME280;2305;50.118;8.952;2023-02-20T01:17:03;101630.38;;;8.50;100.00
4586;BME280;2305;50.118;8.952;2023-02-20T01:19:32;101637.25;;;8.53;100.00
4586;BME280;2305;50.118;8.952;2023-02-20T01:22:00;101636.38;;;8.52;100.00
4586;BME280;2305;50.118;8.952;2023-02-20T01:24:36;101640.88;;;8.50;100.00
4586;BME280;2305;50.118;8.952;2023-02-20T01:27:05;101630.53;;;8.47;100.00
4586;BME280;2305;50.118;8.952;2023-02-20T01:29:35;101631.38;;;8.48;100.00
4586;BME280;2305;50.118;8.952;2023-02-20T01:32:03;101627.81;;;8.49;100.00
4586;BME280;2305;50.118;8.952;2023-02-20T01:34:35;101611.06;;;8.51;100.00
4586;BME280;2305;50.118;8.952;2023-02-20T01:37:06;101619.72;;;8.53;100.00
4586;BME280;2305;50.118;8.952;2023-02-20T01:39:36;101614.63;;;8.50;100.00
4586;BME280;2305;50.118;8.952;2023-02-20T01:42:06;101624.59;;;8.44;100.00
4586;BME280;2305;50.118;8.952;2023-02-20T01:44:36;101614.47;;;8.36;100.00
4586;BME280;2305;50.118;8.952;2023-02-20T01:47:08;101611.88;;;8.19;100.00
4586;BME280;2305;50.118;8.952;2023-02-20T01:49:40;101616.78;;;8.08;100.00
4586;BME280;2305;50.118;8.952;2023-02-20T01:52:14;101611.63;;;8.07;100.00
4586;BME280;2305;50.118;8.952;2023-02-20T01:54:48;101600.34;;;8.05;100.00
4586;BME280;2305;50.118;8.952;2023-02-20T01:57:21;101602.72;;;8.09;100.00
4586;BME280;2305;50.118;8.952;2023-02-20T01:59:56;101585.16;;;8.11;100.00
4586;BME280;2305;50.118;8.952;2023-02-20T02:02:32;101598.19;;;8.13;100.00
4586;BME280;2305;50.118;8.952;2023-02-20T02:05:03;101590.22;;;8.14;100.00
4586;BME280;2305;50.118;8.952;2023-02-20T02:07:33;101583.13;;;8.16;100.00
4586;BME280;2305;50.118;8.952;2023-02-20T02:10:07;101593.53;;;8.18;100.00
4586;BME280;2305;50.118;8.952;2023-02-20T02:12:38;101589.78;;;8.23;100.00
4586;BME280;2305;50.118;8.952;2023-02-20T02:15:12;101582.22;;;8.17;100.00
4586;BME280;2305;50.118;8.952;2023-02-20T02:18:00;101582.53;;;8.11;100.00
4586;BME280;2305;50.118;8.952;2023-02-20T02:21:00;101579.03;;;8.11;100.00
4586;BME280;2305;50.118;8.952;2023-02-20T02:23:56;101591.78;;;8.01;100.00
4586;BME280;2305;50.118;8.952;2023-02-20T02:26:46;101586.94;;;7.94;100.00
4586;BME280;2305;50.118;8.952;2023-02-20T02:29:44;101587.47;;;8.00;100.00
4586;BME280;2305;50.118;8.952;2023-02-20T02:32:41;101586.53;;;8.01;100.00
4586;BME280;2305;50.118;8.952;2023-02-20T02:35:30;101583.91;;;8.01;100.00
4586;BME280;2305;50.118;8.952;2023-02-20T02:38:14;101585.59;;;8.02;100.00
4586;BME280;2305;50.118;8.952;2023-02-20T02:40:51;101582.22;;;8.00;100.00
4586;BME280;2305;50.118;8.952;2023-02-20T02:43:27;101587.75;;;7.94;100.00
4586;BME280;2305;50.118;8.952;2023-02-20T02:46:01;101588.16;;;7.87;100.00
4586;BME280;2305;50.118;8.952;2023-02-20T02:48:35;101578.44;;;7.89;100.00
4586;BME280;2305;50.118;8.952;2023-02-20T02:51:09;101566.00;;;7.92;100.00
4586;BME280;2305;50.118;8.952;2023-02-20T02:53:41;101562.38;;;7.95;100.00
4586;BME280;2305;50.118;8.952;2023-02-20T02:56:33;101557.28;;;7.92;100.00
4586;BME280;2305;50.118;8.952;2023-02-20T02:59:02;101560.00;;;7.90;100.00
4586;BME280;2305;50.118;8.952;2023-02-20T03:01:34;101554.81;;;7.89;100.00
4586;BME280;2305;50.118;8.952;2023-02-20T03:04:05;101556.00;;;7.83;100.00
4586;BME280;2305;50.118;8.952;2023-02-20T03:06:41;101551.28;;;7.73;100.00
4586;BME280;2305;50.118;8.952;2023-02-20T03:09:15;101556.13;;;7.63;100.00
4586;BME280;2305;50.118;8.952;2023-02-20T03:11:45;101561.63;;;7.59;100.00
4586;BME280;2305;50.118;8.952;2023-02-20T03:14:22;101570.53;;;7.55;100.00
4586;BME280;2305;50.118;8.952;2023-02-20T03:17:14;101567.78;;;7.58;100.00
4586;BME280;2305;50.118;8.952;2023-02-20T03:19:46;101554.75;;;7.56;100.00
4586;BME280;2305;50.118;8.952;2023-02-20T03:22:18;101557.81;;;7.47;100.00
4586;BME280;2305;50.118;8.952;2023-02-20T03:24:51;101566.81;;;7.42;100.00
4586;BME280;2305;50.118;8.952;2023-02-20T03:27:33;101566.81;;;7.42;100.00
4586;BME280;2305;50.118;8.952;2023-02-20T03:30:12;101567.44;;;7.47;100.00
4586;BME280;2305;50.118;8.952;2023-02-20T03:32:46;101567.22;;;7.51;100.00
4586;BME280;2305;50.118;8.952;2023-02-20T03:35:37;101577.47;;;7.56;100.00
4586;BME280;2305;50.118;8.952;2023-02-20T03:38:25;101577.34;;;7.59;100.00
4586;BME280;2305;50.118;8.952;2023-02-20T03:41:15;101575.50;;;7.61;100.00
4586;BME280;2305;50.118;8.952;2023-02-20T03:44:04;101568.72;;;7.57;100.00
4586;BME280;2305;50.118;8.952;2023-02-20T03:46:37;101568.84;;;7.54;100.00
4586;BME280;2305;50.118;8.952;2023-02-20T03:49:11;101575.19;;;7.50;100.00
4586;BME280;2305;50.118;8.952;2023-02-20T03:51:43;101572.06;;;7.42;100.00
4586;BME280;2305;50.118;8.952;2023-02-20T03:54:21;101576.28;;;7.27;100.00
4586;BME280;2305;50.118;8.952;2023-02-20T03:56:55;101582.53;;;7.25;100.00
4586;BME280;2305;50.118;8.952;2023-02-20T03:59:27;101584.16;;;7.27;100.00
4586;BME280;2305;50.118;8.952;2023-02-20T04:02:01;101588.47;;;7.28;100.00
4586;BME280;2305;50.118;8.952;2023-02-20T04:04:34;101586.72;;;7.29;100.00
4586;BME280;2305;50.118;8.952;2023-02-20T04:07:07;101592.09;;;7.26;100.00
4586;BME280;2305;50.118;8.952;2023-02-20T04:09:40;101589.47;;;7.26;100.00
4586;BME280;2305;50.118;8.952;2023-02-20T04:12:15;101584.91;;;7.29;100.00
4586;BME280;2305;50.118;8.952;2023-02-20T04:14:46;101576.94;;;7.32;100.00
4586;BME280;2305;50.118;8.952;2023-02-20T04:17:20;101576.78;;;7.35;100.00
4586;BME280;2305;50.118;8.952;2023-02-20T04:19:49;101573.91;;;7.40;100.00
4586;BME280;2305;50.118;8.952;2023-02-20T04:22:19;101574.22;;;7.34;100.00
4586;BME280;2305;50.118;8.952;2023-02-20T04:24:52;101583.28;;;7.27;100.00
4586;BME280;2305;50.118;8.952;2023-02-20T04:27:24;101583.66;;;7.19;100.00
4586;BME280;2305;50.118;8.952;2023-02-20T04:29:55;101574.19;;;7.17;100.00
4586;BME280;2305;50.118;8.952;2023-02-20T04:32:24;101574.63;;;7.08;100.00
4586;BME280;2305;50.118;8.952;2023-02-20T04:35:15;101595.66;;;7.06;100.00
4586;BME280;2305;50.118;8.952;2023-02-20T04:37:45;101589.41;;;7.09;100.00
4586;BME280;2305;50.118;8.952;2023-02-20T04:40:16;101597.72;;;7.00;100.00
4586;BME280;2305;50.118;8.952;2023-02-20T04:42:46;101587.44;;;6.95;100.00
4586;BME280;2305;50.118;8.952;2023-02-20T04:45:15;101588.44;;;6.93;100.00
4586;BME280;2305;50.118;8.952;2023-02-20T04:47:43;101578.84;;;6.92;100.00
4586;BME280;2305;50.118;8.952;2023-02-20T04:50:15;101577.97;;;6.93;100.00
4586;BME280;2305;50.118;8.952;2023-02-20T04:52:52;101575.63;;;6.87;100.00
4586;BME280;2305;50.118;8.952;2023-02-20T04:55:20;101588.84;;;6.84;100.00
4586;BME280;2305;50.118;8.952;2023-02-20T04:57:52;101587.09;;;6.84;100.00
4586;BME280;2305;50.118;8.952;2023-02-20T05:00:23;101584.47;;;6.84;100.00
4586;BME280;2305;50.118;8.952;2023-02-20T05:02:53;101578.38;;;6.84;100.00
4586;BME280;2305;50.118;8.952;2023-02-20T05:05:25;101577.53;;;6.83;100.00
4586;BME280;2305;50.118;8.952;2023-02-20T05:07:55;101570.09;;;6.74;100.00
4586;BME280;2305;50.118;8.952;2023-02-20T05:10:26;101575.31;;;6.74;100.00
4586;BME280;2305;50.118;8.952;2023-02-20T05:12:56;101572.78;;;6.73;100.00
4586;BME280;2305;50.118;8.952;2023-02-20T05:15:25;101572.91;;;6.70;100.00
4586;BME280;2305;50.118;8.952;2023-02-20T05:17:54;101579.22;;;6.66;100.00
4586;BME280;2305;50.118;8.952;2023-02-20T05:20:23;101572.16;;;6.68;100.00
4586;BME280;2305;50.118;8.952;2023-02-20T05:23:12;101565.22;;;6.67;100.00
4586;BME280;2305;50.118;8.952;2023-02-20T05:25:40;101561.81;;;6.65;100.00
4586;BME280;2305;50.118;8.952;2023-02-20T05:28:10;101548.19;;;6.57;100.00
4586;BME280;2305;50.118;8.952;2023-02-20T05:30:38;101554.47;;;6.54;100.00
4586;BME280;2305;50.118;8.952;2023-02-20T05:33:07;101548.78;;;6.45;100.00
4586;BME280;2305;50.118;8.952;2023-02-20T05:35:35;101550.81;;;6.38;100.00
4586;BME280;2305;50.118;8.952;2023-02-20T05:38:05;101543.97;;;6.36;100.00
4586;BME280;2305;50.118;8.952;2023-02-20T05:40:34;101542.53;;;6.29;100.00
4586;BME280;2305;50.118;8.952;2023-02-20T05:43:04;101550.56;;;6.24;100.00
4586;BME280;2305;50.118;8.952;2023-02-20T05:45:34;101549.22;;;6.16;100.00
4586;BME280;2305;50.118;8.952;2023-02-20T05:48:03;101557.19;;;6.13;100.00
4586;BME280;2305;50.118;8.952;2023-02-20T05:50:30;101559.59;;;6.17;100.00
4586;BME280;2305;50.118;8.952;2023-02-20T05:52:59;101557.66;;;6.22;100.00
4586;BME280;2305;50.118;8.952;2023-02-20T05:55:28;101552.94;;;6.10;100.00
4586;BME280;2305;50.118;8.952;2023-02-20T05:57:56;101548.78;;;6.06;100.00
4586;BME280;2305;50.118;8.952;2023-02-20T06:00:25;101547.91;;;6.06;100.00
4586;BME280;2305;50.118;8.952;2023-02-20T06:02:55;101554.22;;;6.02;100.00
4586;BME280;2305;50.118;8.952;2023-02-20T06:05:23;101558.63;;;6.00;100.00
4586;BME280;2305;50.118;8.952;2023-02-20T06:07:53;101554.13;;;6.03;100.00
4586;BME280;2305;50.118;8.952;2023-02-20T06:10:22;101549.97;;;5.99;100.00
4586;BME280;2305;50.118;8.952;2023-02-20T06:12:50;101541.38;;;5.96;100.00
4586;BME280;2305;50.118;8.952;2023-02-20T06:15:18;101543.59;;;6.05;100.00
4586;BME280;2305;50.118;8.952;2023-02-20T06:17:47;101546.41;;;6.00;100.00
4586;BME280;2305;50.118;8.952;2023-02-20T06:20:17;101539.34;;;6.02;100.00
4586;BME280;2305;50.118;8.952;2023-02-20T06:22:46;101542.78;;;6.04;100.00
4586;BME280;2305;50.118;8.952;2023-02-20T06:25:15;101529.69;;;6.04;100.00
4586;BME280;2305;50.118;8.952;2023-02-20T06:27:45;101525.19;;;6.08;100.00
4586;BME280;2305;50.118;8.952;2023-02-20T06:30:13;101532.00;;;6.10;100.00
4586;BME280;2305;50.118;8.952;2023-02-20T06:32:42;101543.13;;;6.15;100.00
4586;BME280;2305;50.118;8.952;2023-02-20T06:35:11;101543.06;;;6.17;100.00
4586;BME280;2305;50.118;8.952;2023-02-20T06:37:42;101546.25;;;6.23;100.00
4586;BME280;2305;50.118;8.952;2023-02-20T06:40:10;101548.88;;;6.23;100.00
4586;BME280;2305;50.118;8.952;2023-02-20T06:42:39;101558.97;;;6.32;100.00
4586;BME280;2305;50.118;8.952;2023-02-20T06:45:07;101555.22;;;6.38;100.00
4586;BME280;2305;50.118;8.952;2023-02-20T06:47:42;101553.22;;;6.43;100.00
4586;BME280;2305;50.118;8.952;2023-02-20T06:50:11;101549.63;;;6.45;100.00
4586;BME280;2305;50.118;8.952;2023-02-20T06:52:39;101555.34;;;6.53;100.00
4586;BME280;2305;50.118;8.952;2023-02-20T06:55:08;101549.00;;;6.59;100.00
4586;BME280;2305;50.118;8.952;2023-02-20T06:57:36;101546.00;;;6.66;100.00
4586;BME280;2305;50.118;8.952;2023-02-20T07:00:06;101551.19;;;6.68;100.00
4586;BME280;2305;50.118;8.952;2023-02-20T07:02:34;101554.69;;;6.68;100.00
4586;BME280;2305;50.118;8.952;2023-02-20T07:05:03;101563.25;;;6.72;100.00
4586;BME280;2305;50.118;8.952;2023-02-20T07:07:34;101559.53;;;6.76;100.00
4586;BME280;2305;50.118;8.952;2023-02-20T07:10:03;101565.56;;;6.78;100.00
4586;BME280;2305;50.118;8.952;2023-02-20T07:12:35;101552.41;;;6.79;100.00
4586;BME280;2305;50.118;8.952;2023-02-20T07:15:06;101553.16;;;6.81;100.00
4586;BME280;2305;50.118;8.952;2023-02-20T07:17:34;101550.63;;;6.80;100.00
4586;BME280;2305;50.118;8.952;2023-02-20T07:20:03;101541.09;;;6.79;100.00
4586;BME280;2305;50.118;8.952;2023-02-20T07:22:31;101544.59;;;6.78;100.00
4586;BME280;2305;50.118;8.952;2023-02-20T07:25:00;101549.72;;;6.81;100.00
4586;BME280;2305;50.118;8.952;2023-02-20T07:27:28;101555.59;;;6.86;100.00
4586;BME280;2305;50.118;8.952;2023-02-20T07:29:57;101550.13;;;6.90;100.00
4586;BME280;2305;50.118;8.952;2023-02-20T07:32:25;101560.53;;;6.92;100.00
4586;BME280;2305;50.118;8.952;2023-02-20T07:34:53;101555.09;;;6.96;100.00
4586;BME280;2305;50.118;8.952;2023-02-20T07:37:31;101558.25;;;7.03;100.00
4586;BME280;2305;50.118;8.952;2023-02-20T07:39:59;101559.97;;;7.04;100.00
4586;BME280;2305;50.118;8.952;2023-02-20T07:42:28;101551.31;;;7.02;100.00
4586;BME280;2305;50.118;8.952;2023-02-20T07:45:08;101549.53;;;7.02;100.00
4586;BME280;2305;50.118;8.952;2023-02-20T07:47:37;101556.06;;;7.12;100.00
4586;BME280;2305;50.118;8.952;2023-02-20T07:50:08;101547.75;;;7.21;100.00
4586;BME280;2305;50.118;8.952;2023-02-20T07:52:36;101541.91;;;7.33;100.00
4586;BME280;2305;50.118;8.952;2023-02-20T07:55:04;101547.75;;;7.38;100.00
4586;BME280;2305;50.118;8.952;2023-02-20T07:57:35;101548.34;;;7.45;100.00
4586;BME280;2305;50.118;8.952;2023-02-20T08:00:04;101544.63;;;7.49;100.00
4586;BME280;2305;50.118;8.952;2023-02-20T08:02:39;101541.78;;;7.53;100.00
4586;BME280;2305;50.118;8.952;2023-02-20T08:05:07;101551.66;;;7.65;100.00
4586;BME280;2305;50.118;8.952;2023-02-20T08:07:37;101535.31;;;7.77;100.00
4586;BME280;2305;50.118;8.952;2023-02-20T08:10:10;101542.56;;;7.89;100.00
4586;BME280;2305;50.118;8.952;2023-02-20T08:12:38;101532.59;;;7.96;100.00
4586;BME280;2305;50.118;8.952;2023-02-20T08:15:07;101524.09;;;8.08;100.00
4586;BME280;2305;50.118;8.952;2023-02-20T08:17:40;101518.28;;;8.18;100.00
4586;BME280;2305;50.118;8.952;2023-02-20T08:20:14;101528.63;;;8.21;100.00
4586;BME280;2305;50.118;8.952;2023-02-20T08:22:43;101526.44;;;8.29;100.00
4586;BME280;2305;50.118;8.952;2023-02-20T08:25:12;101521.72;;;8.19;100.00
4586;BME280;2305;50.118;8.952;2023-02-20T08:27:46;101523.47;;;8.20;100.00
4586;BME280;2305;50.118;8.952;2023-02-20T08:30:18;101516.13;;;8.26;100.00
4586;BME280;2305;50.118;8.952;2023-02-20T08:32:51;101513.09;;;8.49;100.00
4586;BME280;2305;50.118;8.952;2023-02-20T08:35:21;101504.03;;;8.55;100.00
4586;BME280;2305;50.118;8.952;2023-02-20T08:37:50;101501.63;;;8.67;100.00
4586;BME280;2305;50.118;8.952;2023-02-20T08:40:19;101498.53;;;8.75;100.00
4586;BME280;2305;50.118;8.952;2023-02-20T08:42:48;101490.06;;;8.85;100.00
4586;BME280;2305;50.118;8.952;2023-02-20T08:45:17;101500.31;;;9.05;100.00
4586;BME280;2305;50.118;8.952;2023-02-20T08:47:45;101485.56;;;9.02;100.00
4586;BME280;2305;50.118;8.952;2023-02-20T08:50:21;101480.31;;;9.02;100.00
4586;BME280;2305;50.118;8.952;2023-02-20T08:52:49;101479.41;;;9.17;100.00
4586;BME280;2305;50.118;8.952;2023-02-20T08:55:22;101493.78;;;9.12;100.00
4586;BME280;2305;50.118;8.952;2023-02-20T08:57:50;101488.91;;;9.35;100.00
4586;BME280;2305;50.118;8.952;2023-02-20T09:00:19;101492.09;;;9.40;100.00
4586;BME280;2305;50.118;8.952;2023-02-20T09:02:47;101486.47;;;9.46;100.00
4586;BME280;2305;50.118;8.952;2023-02-20T09:05:22;101478.06;;;9.55;100.00
4586;BME280;2305;50.118;8.952;2023-02-20T09:07:50;101487.00;;;9.67;100.00
4586;BME280;2305;50.118;8.952;2023-02-20T09:10:20;101492.78;;;9.58;100.00
4586;BME280;2305;50.118;8.952;2023-02-20T09:12:52;101485.06;;;9.70;100.00
4586;BME280;2305;50.118;8.952;2023-02-20T09:15:22;101486.75;;;9.71;100.00
4586;BME280;2305;50.118;8.952;2023-02-20T09:17:54;101476.97;;;9.87;100.00
4586;BME280;2305;50.118;8.952;2023-02-20T09:20:24;101489.78;;;9.93;100.00
4586;BME280;2305;50.118;8.952;2023-02-20T09:22:56;101485.25;;;9.95;100.00
4586;BME280;2305;50.118;8.952;2023-02-20T09:25:25;101475.44;;;9.83;100.00
4586;BME280;2305;50.118;8.952;2023-02-20T09:27:53;101488.16;;;9.91;100.00
4586;BME280;2305;50.118;8.952;2023-02-20T09:30:22;101500.88;;;9.98;100.00
4586;BME280;2305;50.118;8.952;2023-02-20T09:32:50;101487.19;;;10.07;100.00
4586;BME280;2305;50.118;8.952;2023-02-20T09:35:22;101477.03;;;10.15;100.00
4586;BME280;2305;50.118;8.952;2023-02-20T09:37:53;101479.00;;;10.26;100.00
4586;BME280;2305;50.118;8.952;2023-02-20T09:40:23;101484.28;;;10.26;100.00
4586;BME280;2305;50.118;8.952;2023-02-20T09:43:06;101481.84;;;10.23;100.00
4586;BME280;2305;50.118;8.952;2023-02-20T09:45:42;101484.19;;;10.13;100.00
4586;BME280;2305;50.118;8.952;2023-02-20T09:48:21;101482.88;;;10.20;100.00
4586;BME280;2305;50.118;8.952;2023-02-20T09:50:52;101476.16;;;10.29;100.00
4586;BME280;2305;50.118;8.952;2023-02-20T09:53:28;101479.38;;;10.20;100.00
4586;BME280;2305;50.118;8.952;2023-02-20T09:55:58;101471.75;;;10.29;100.00
4586;BME280;2305;50.118;8.952;2023-02-20T09:58:31;101475.84;;;10.47;100.00
4586;BME280;2305;50.118;8.952;2023-02-20T10:01:05;101477.94;;;10.56;100.00
4586;BME280;2305;50.118;8.952;2023-02-20T10:03:38;101469.53;;;10.64;100.00
4586;BME280;2305;50.118;8.952;2023-02-20T10:06:17;101477.69;;;10.73;100.00
4586;BME280;2305;50.118;8.952;2023-02-20T10:08:50;101471.66;;;10.85;100.00
4586;BME280;2305;50.118;8.952;2023-02-20T10:11:27;101472.59;;;10.84;100.00
4586;BME280;2305;50.118;8.952;2023-02-20T10:14:13;101462.84;;;10.99;100.00
4586;BME280;2305;50.118;8.952;2023-02-20T10:16:54;101459.91;;;11.03;100.00
4586;BME280;2305;50.118;8.952;2023-02-20T10:19:38;101459.41;;;11.11;100.00
4586;BME280;2305;50.118;8.952;2023-02-20T10:22:17;101457.59;;;11.11;100.00
4586;BME280;2305;50.118;8.952;2023-02-20T10:24:58;101448.47;;;11.17;100.00
4586;BME280;2305;50.118;8.952;2023-02-20T10:27:36;101443.84;;;11.33;100.00
4586;BME280;2305;50.118;8.952;2023-02-20T10:30:09;101462.78;;;11.52;100.00
4586;BME280;2305;50.118;8.952;2023-02-20T10:32:42;101448.25;;;11.59;100.00
4586;BME280;2305;50.118;8.952;2023-02-20T10:35:17;101445.94;;;11.67;100.00
4586;BME280;2305;50.118;8.952;2023-02-20T10:37:51;101449.94;;;11.72;100.00
4586;BME280;2305;50.118;8.952;2023-02-20T10:40:26;101441.41;;;11.81;100.00
4586;BME280;2305;50.118;8.952;2023-02-20T10:43:01;101441.50;;;11.92;100.00
4586;BME280;2305;50.118;8.952;2023-02-20T10:45:45;101447.41;;;11.71;100.00
4586;BME280;2305;50.118;8.952;2023-02-20T10:48:16;101436.00;;;11.95;100.00
4586;BME280;2305;50.118;8.952;2023-02-20T10:50:49;101429.88;;;11.82;100.00
4586;BME280;2305;50.118;8.952;2023-02-20T10:53:24;101413.19;;;11.94;100.00
4586;BME280;2305;50.118;8.952;2023-02-20T10:56:03;101426.69;;;12.02;100.00
4586;BME280;2305;50.118;8.952;2023-02-20T10:58:39;101408.50;;;12.23;100.00
4586;BME280;2305;50.118;8.952;2023-02-20T11:01:12;101412.28;;;12.31;100.00
4586;BME280;2305;50.118;8.952;2023-02-20T11:03:46;101406.50;;;12.26;100.00
4586;BME280;2305;50.118;8.952;2023-02-20T11:06:22;101395.69;;;12.29;100.00
4586;BME280;2305;50.118;8.952;2023-02-20T11:08:56;101388.78;;;12.39;100.00
4586;BME280;2305;50.118;8.952;2023-02-20T11:11:30;101398.09;;;12.45;100.00
4586;BME280;2305;50.118;8.952;2023-02-20T11:14:10;101372.13;;;12.50;100.00
4586;BME280;2305;50.118;8.952;2023-02-20T11:16:45;101365.69;;;12.54;100.00
4586;BME280;2305;50.118;8.952;2023-02-20T11:19:19;101372.59;;;12.67;100.00
4586;BME280;2305;50.118;8.952;2023-02-20T11:21:50;101365.97;;;12.85;100.00
4586;BME280;2305;50.118;8.952;2023-02-20T11:24:27;101367.09;;;12.94;100.00
4586;BME280;2305;50.118;8.952;2023-02-20T11:27:04;101353.97;;;12.92;100.00
4586;BME280;2305;50.118;8.952;2023-02-20T11:29:36;101369.06;;;13.03;100.00
4586;BME280;2305;50.118;8.952;2023-02-20T11:32:23;101347.19;;;13.12;100.00
4586;BME280;2305;50.118;8.952;2023-02-20T11:35:22;101346.56;;;12.97;100.00
4586;BME280;2305;50.118;8.952;2023-02-20T11:41:07;101338.66;;;13.08;100.00
4586;BME280;2305;50.118;8.952;2023-02-20T11:43:40;101328.31;;;13.16;100.00
4586;BME280;2305;50.118;8.952;2023-02-20T11:46:26;101331.75;;;13.40;100.00
4586;BME280;2305;50.118;8.952;2023-02-20T11:49:00;101315.25;;;13.37;100.00
4586;BME280;2305;50.118;8.952;2023-02-20T11:51:33;101317.19;;;13.46;100.00
4586;BME280;2305;50.118;8.952;2023-02-20T11:54:23;101318.75;;;13.48;100.00
4586;BME280;2305;50.118;8.952;2023-02-20T11:56:57;101315.75;;;13.63;100.00
4586;BME280;2305;50.118;8.952;2023-02-20T11:59:31;101301.41;;;13.66;100.00
4586;BME280;2305;50.118;8.952;2023-02-20T12:05:04;101302.13;;;13.79;100.00
4586;BME280;2305;50.118;8.952;2023-02-20T12:07:35;101290.09;;;13.97;100.00
4586;BME280;2305;50.118;8.952;2023-02-20T12:10:23;101271.72;;;14.16;100.00
4586;BME280;2305;50.118;8.952;2023-02-20T12:12:52;101276.53;;;14.33;100.00
4586;BME280;2305;50.118;8.952;2023-02-20T12:15:24;101270.88;;;14.58;100.00
4586;BME280;2305;50.118;8.952;2023-02-20T12:18:09;101277.94;;;14.68;100.00
4586;BME280;2305;50.118;8.952;2023-02-20T12:20:47;101274.41;;;14.79;100.00
4586;BME280;2305;50.118;8.952;2023-02-20T12:23:22;101257.31;;;14.72;100.00
4586;BME280;2305;50.118;8.952;2023-02-20T12:26:13;101255.34;;;14.74;100.00
4586;BME280;2305;50.118;8.952;2023-02-20T12:28:55;101259.47;;;14.78;100.00
4586;BME280;2305;50.118;8.952;2023-02-20T12:31:37;101244.66;;;14.96;100.00
4586;BME280;2305;50.118;8.952;2023-02-20T12:34:23;101245.59;;;14.95;100.00
4586;BME280;2305;50.118;8.952;2023-02-20T12:36:58;101260.09;;;14.91;100.00
4586;BME280;2305;50.118;8.952;2023-02-20T12:39:35;101233.81;;;15.08;100.00
4586;BME280;2305;50.118;8.952;2023-02-20T12:42:22;101223.09;;;15.19;100.00
4586;BME280;2305;50.118;8.952;2023-02-20T12:45:10;101244.38;;;15.29;100.00
4586;BME280;2305;50.118;8.952;2023-02-20T12:47:57;101254.13;;;15.39;100.00
4586;BME280;2305;50.118;8.952;2023-02-20T12:51:01;101233.91;;;15.48;100.00
4586;BME280;2305;50.118;8.952;2023-02-20T12:53:42;101224.53;;;15.53;100.00
4586;BME280;2305;50.118;8.952;2023-02-20T12:56:23;101215.69;;;15.83;99.14
4586;BME280;2305;50.118;8.952;2023-02-20T12:58:58;101213.88;;;15.93;100.00
4586;BME280;2305;50.118;8.952;2023-02-20T13:01:30;101214.34;;;16.17;97.86
4586;BME280;2305;50.118;8.952;2023-02-20T13:04:21;101202.00;;;16.25;98.06
4586;BME280;2305;50.118;8.952;2023-02-20T13:06:57;101198.66;;;16.33;100.00
4586;BME280;2305;50.118;8.952;2023-02-20T13:09:36;101198.13;;;16.39;100.00
4586;BME280;2305;50.118;8.952;2023-02-20T13:12:09;101187.16;;;16.23;99.30
4586;BME280;2305;50.118;8.952;2023-02-20T13:14:54;101185.78;;;16.28;97.91
4586;BME280;2305;50.118;8.952;2023-02-20T13:17:32;101172.34;;;16.01;98.30
4586;BME280;2305;50.118;8.952;2023-02-20T13:20:14;101171.50;;;16.29;99.35
4586;BME280;2305;50.118;8.952;2023-02-20T13:22:57;101166.72;;;16.14;96.45
4586;BME280;2305;50.118;8.952;2023-02-20T13:25:38;101171.47;;;16.01;97.95
4586;BME280;2305;50.118;8.952;2023-02-20T13:28:25;101149.09;;;16.03;100.00
4586;BME280;2305;50.118;8.952;2023-02-20T13:31:07;101157.78;;;16.24;98.22
4586;BME280;2305;50.118;8.952;2023-02-20T13:33:36;101140.00;;;16.34;95.48
4586;BME280;2305;50.118;8.952;2023-02-20T13:36:15;101136.09;;;16.38;97.51
4586;BME280;2305;50.118;8.952;2023-02-20T13:39:25;101121.09;;;16.56;95.56
4586;BME280;2305;50.118;8.952;2023-02-20T13:41:58;101117.88;;;16.15;94.91
4586;BME280;2305;50.118;8.952;2023-02-20T13:44:41;101112.44;;;16.26;94.27
4586;BME280;2305;50.118;8.952;2023-02-20T13:47:33;101111.88;;;16.87;94.00
4586;BME280;2305;50.118;8.952;2023-02-20T13:50:27;101128.22;;;18.00;77.71